createdAt,value
2018-12-16T00:01:00.465Z,32.42
2018-12-16T00:03:29.999Z,32.90
2018-12-16T00:05:59.470Z,37.08
2018-12-16T00:08:26.928Z,31.62
2018-12-16T00:10:54.534Z,36.88
2018-12-16T00:13:22.037Z,35.63
2018-12-16T00:15:49.636Z,36.58
2018-12-16T00:18:17.134Z,35.52
2018-12-16T00:20:44.661Z,36.40
2018-12-16T00:23:12.219Z,29.65
2018-12-16T00:25:39.731Z,33.63
2018-12-16T00:28:07.247Z,32.33
2018-12-16T00:30:34.719Z,34.35
2018-12-16T00:33:02.180Z,32.80
2018-12-16T00:35:29.646Z,35.68
2018-12-16T00:37:57.202Z,33.95
2018-12-16T00:40:24.696Z,34.70
2018-12-16T00:42:52.211Z,31.60
2018-12-16T00:45:19.638Z,39.98
2018-12-16T00:47:47.607Z,36.70
2018-12-16T00:50:16.329Z,31.60
2018-12-16T00:52:43.766Z,30.23
2018-12-16T00:55:11.461Z,33.95
2018-12-16T00:57:38.903Z,32.48
2018-12-16T01:00:11.836Z,38.45
2018-12-16T01:02:41.186Z,33.42
2018-12-16T01:05:08.951Z,33.28
2018-12-16T01:07:37.474Z,38.23
2018-12-16T01:10:05.552Z,34.98
2018-12-16T01:12:33.185Z,35.10
2018-12-16T01:15:00.628Z,40.43
2018-12-16T01:17:28.200Z,38.38
2018-12-16T01:19:55.642Z,32.78
2018-12-16T01:22:23.166Z,29.18
2018-12-16T01:24:50.708Z,34.67
2018-12-16T01:27:18.116Z,30.40
2018-12-16T01:29:45.580Z,30.20
2018-12-16T01:32:13.188Z,33.20
2018-12-16T01:34:42.071Z,29.42
2018-12-16T01:37:09.851Z,34.95
2018-12-16T01:39:37.310Z,36.93
2018-12-16T01:42:04.772Z,32.70
2018-12-16T01:44:32.366Z,32.83
2018-12-16T01:46:59.860Z,36.08
2018-12-16T01:49:27.409Z,31.97
2018-12-16T01:51:54.833Z,34.23
2018-12-16T01:54:22.444Z,34.35
2018-12-16T01:56:50.014Z,37.67
2018-12-16T01:59:17.479Z,36.68
2018-12-16T02:01:50.621Z,33.53
2018-12-16T02:04:18.255Z,36.55
2018-12-16T02:06:47.014Z,41.48
2018-12-16T02:09:14.850Z,39.18
2018-12-16T02:11:42.424Z,40.58
2018-12-16T02:14:09.935Z,36.45
2018-12-16T02:16:37.341Z,40.38
2018-12-16T02:19:04.802Z,36.03
2018-12-16T02:21:32.223Z,35.00
2018-12-16T02:23:59.694Z,39.50
2018-12-16T02:26:27.209Z,41.75
2018-12-16T02:28:54.688Z,40.83
2018-12-16T02:31:22.261Z,38.95
2018-12-16T02:33:49.832Z,46.85
2018-12-16T02:36:17.388Z,36.35
2018-12-16T02:38:44.850Z,40.85
2018-12-16T02:41:12.612Z,41.20
2018-12-16T02:43:40.105Z,40.25
2018-12-16T02:46:07.762Z,43.78
2018-12-16T02:48:35.206Z,46.85
2018-12-16T02:51:02.694Z,48.60
2018-12-16T02:53:30.323Z,44.23
2018-12-16T02:55:57.858Z,44.65
2018-12-16T02:58:25.437Z,42.98
2018-12-16T03:00:53.434Z,52.25
2018-12-16T03:03:21.141Z,51.80
2018-12-16T03:05:48.725Z,46.88
2018-12-16T03:08:17.387Z,48.58
2018-12-16T03:10:44.835Z,48.80
2018-12-16T03:13:12.336Z,56.60
2018-12-16T03:15:39.920Z,53.08
2018-12-16T03:18:07.381Z,52.98
2018-12-16T03:20:35.007Z,47.78
2018-12-16T03:23:02.650Z,56.65
2018-12-16T03:25:30.068Z,49.27
2018-12-16T03:27:57.609Z,52.45
2018-12-16T03:30:25.001Z,51.73
2018-12-16T03:32:52.525Z,54.73
2018-12-16T03:35:20.084Z,51.05
2018-12-16T03:37:47.583Z,52.50
2018-12-16T03:40:15.097Z,52.05
2018-12-16T03:42:42.552Z,55.78
2018-12-16T03:45:10.044Z,50.65
2018-12-16T03:47:37.537Z,54.40
2018-12-16T03:50:05.213Z,49.55
2018-12-16T03:52:32.701Z,53.33
2018-12-16T03:55:00.215Z,49.75
2018-12-16T03:57:27.586Z,52.85
2018-12-16T03:59:56.893Z,52.67
2018-12-16T04:02:24.418Z,51.13
2018-12-16T04:04:51.967Z,51.85
2018-12-16T04:07:19.496Z,49.95
2018-12-16T04:09:47.066Z,49.98
2018-12-16T04:12:14.513Z,45.45
2018-12-16T04:14:42.042Z,54.77
2018-12-16T04:17:09.531Z,49.95
2018-12-16T04:19:37.373Z,44.13
2018-12-16T04:22:04.967Z,45.05
2018-12-16T04:24:32.439Z,45.67
2018-12-16T04:26:59.967Z,48.68
2018-12-16T04:29:27.462Z,47.55
2018-12-16T04:31:54.981Z,44.83
2018-12-16T04:34:22.474Z,50.40
2018-12-16T04:36:49.991Z,52.53
2018-12-16T04:39:17.591Z,46.48
2018-12-16T04:41:46.811Z,49.73
2018-12-16T04:44:14.396Z,45.95
2018-12-16T04:46:41.844Z,44.03
2018-12-16T04:49:09.449Z,45.00
2018-12-16T04:51:37.033Z,43.13
2018-12-16T04:54:04.478Z,46.58
2018-12-16T04:56:31.986Z,42.93
2018-12-16T04:58:59.478Z,50.83
2018-12-16T05:01:26.982Z,44.30
2018-12-16T05:03:54.517Z,45.90
2018-12-16T05:06:22.045Z,40.12
2018-12-16T05:08:49.585Z,46.55
2018-12-16T05:11:17.078Z,48.92
2018-12-16T05:13:44.739Z,46.10
2018-12-16T05:16:12.325Z,46.45
2018-12-16T05:18:39.777Z,53.13
2018-12-16T05:21:07.562Z,48.15
2018-12-16T05:23:41.688Z,45.12
2018-12-16T05:26:04.748Z,48.95
2018-12-16T05:28:32.294Z,46.92
2018-12-16T05:30:59.735Z,44.25
2018-12-16T05:33:27.124Z,49.15
2018-12-16T05:35:54.632Z,49.60
2018-12-16T05:38:22.040Z,53.02
2018-12-16T05:40:49.482Z,48.95
2018-12-16T05:43:17.084Z,53.30
2018-12-16T05:45:44.588Z,46.18
2018-12-16T05:48:12.023Z,51.73
2018-12-16T05:50:39.509Z,48.38
2018-12-16T05:53:06.907Z,54.13
2018-12-16T05:55:34.462Z,50.28
2018-12-16T05:58:01.911Z,57.78
2018-12-16T06:00:29.415Z,50.35
2018-12-16T06:02:56.907Z,49.03
2018-12-16T06:05:24.402Z,58.92
2018-12-16T06:07:52.023Z,51.45
2018-12-16T06:10:19.394Z,48.95
2018-12-16T06:12:46.951Z,49.00
2018-12-16T06:15:14.474Z,54.77
2018-12-16T06:17:41.981Z,56.02
2018-12-16T06:20:09.377Z,65.03
2018-12-16T06:22:36.874Z,59.65
2018-12-16T06:25:04.522Z,53.40
2018-12-16T06:27:31.943Z,51.85
2018-12-16T06:29:59.700Z,49.40
2018-12-16T06:32:27.457Z,58.73
2018-12-16T06:34:54.822Z,39.90
2018-12-16T06:37:22.442Z,47.15
2018-12-16T06:39:49.914Z,46.90
2018-12-16T06:42:17.389Z,46.60
2018-12-16T06:44:44.943Z,51.85
2018-12-16T06:47:12.526Z,53.35
2018-12-16T06:49:40.006Z,46.15
2018-12-16T06:52:07.499Z,48.92
2018-12-16T06:54:34.915Z,50.23
2018-12-16T06:57:02.426Z,51.40
2018-12-16T06:59:29.861Z,53.83
2018-12-16T07:01:59.391Z,55.80
2018-12-16T07:04:26.982Z,47.93
2018-12-16T07:06:54.421Z,51.58
2018-12-16T07:09:21.841Z,51.60
2018-12-16T07:11:49.284Z,49.25
2018-12-16T07:14:16.782Z,50.52
2018-12-16T07:16:44.329Z,48.08
2018-12-16T07:19:12.908Z,52.65
2018-12-16T07:21:40.375Z,52.78
2018-12-16T07:24:09.305Z,58.05
2018-12-16T07:26:37.078Z,59.63
2018-12-16T07:29:04.635Z,54.45
2018-12-16T07:31:32.230Z,64.25
2018-12-16T07:33:59.821Z,59.58
2018-12-16T07:36:27.449Z,59.70
2018-12-16T07:38:55.012Z,53.70
2018-12-16T07:41:22.624Z,59.13
2018-12-16T07:43:50.343Z,57.98
2018-12-16T07:46:17.983Z,56.45
2018-12-16T07:48:45.814Z,53.33
2018-12-16T07:51:13.567Z,66.07
2018-12-16T07:53:41.058Z,63.00
2018-12-16T07:56:08.553Z,56.37
2018-12-16T07:58:35.960Z,58.95
2018-12-16T08:01:03.425Z,64.20
2018-12-16T08:03:30.886Z,58.45
2018-12-16T08:05:58.411Z,57.95
2018-12-16T08:08:25.881Z,54.85
2018-12-16T08:10:53.383Z,59.50
2018-12-16T08:13:27.867Z,57.50
2018-12-16T08:15:55.356Z,60.03
2018-12-16T08:18:22.879Z,55.08
2018-12-16T08:20:50.312Z,51.92
2018-12-16T08:23:17.842Z,51.42
2018-12-16T08:25:45.326Z,52.00
2018-12-16T08:28:13.023Z,57.00
2018-12-16T08:30:40.627Z,54.85
2018-12-16T08:33:08.141Z,53.20
2018-12-16T08:35:35.684Z,54.70
2018-12-16T08:38:03.348Z,66.37
2018-12-16T08:40:30.871Z,57.48
2018-12-16T08:42:58.325Z,57.15
2018-12-16T08:45:25.810Z,52.88
2018-12-16T08:47:53.352Z,54.93
2018-12-16T08:50:20.828Z,56.83
2018-12-16T08:52:48.315Z,52.30
2018-12-16T08:55:15.817Z,60.63
2018-12-16T08:57:43.414Z,59.25
2018-12-16T09:00:11.007Z,58.87
2018-12-16T09:02:38.804Z,58.85
2018-12-16T09:05:06.626Z,56.70
2018-12-16T09:07:37.385Z,57.05
2018-12-16T09:10:04.691Z,53.73
2018-12-16T09:12:32.248Z,53.95
2018-12-16T09:15:00.952Z,60.40
2018-12-16T09:17:28.406Z,55.50
2018-12-16T09:19:55.939Z,57.03
2018-12-16T09:22:23.483Z,53.87
2018-12-16T09:24:50.904Z,53.63
2018-12-16T09:27:18.483Z,54.95
2018-12-16T09:29:45.991Z,54.95
2018-12-16T09:32:13.506Z,52.13
2018-12-16T09:34:40.955Z,52.75
2018-12-16T09:37:08.494Z,50.35
2018-12-16T09:39:35.954Z,52.33
2018-12-16T09:42:03.422Z,53.28
2018-12-16T09:44:30.969Z,55.40
2018-12-16T09:46:58.463Z,52.83
2018-12-16T09:49:25.952Z,47.62
2018-12-16T09:51:53.484Z,63.40
2018-12-16T09:54:20.986Z,60.90
2018-12-16T09:56:48.474Z,57.60
2018-12-16T09:59:15.952Z,49.27
2018-12-16T10:01:43.462Z,54.20
2018-12-16T10:04:10.966Z,59.15
2018-12-16T10:06:38.433Z,45.67
2018-12-16T10:09:07.868Z,54.80
2018-12-16T10:11:36.416Z,60.38
2018-12-16T10:14:04.170Z,54.55
2018-12-16T10:16:31.624Z,51.75
2018-12-16T10:18:59.065Z,45.40
2018-12-16T10:21:26.688Z,46.45
2018-12-16T10:23:54.169Z,50.15
2018-12-16T10:26:21.676Z,51.73
2018-12-16T10:28:49.193Z,44.70
2018-12-16T10:31:16.699Z,47.58
2018-12-16T10:33:44.310Z,51.70
2018-12-16T10:36:11.995Z,45.80
2018-12-16T10:38:40.966Z,47.85
2018-12-16T10:41:08.498Z,53.05
2018-12-16T10:43:35.958Z,49.27
2018-12-16T10:46:03.509Z,50.08
2018-12-16T10:48:31.184Z,63.42
2018-12-16T10:50:58.715Z,54.70
2018-12-16T10:53:26.326Z,63.60
2018-12-16T10:55:55.101Z,58.02
2018-12-16T10:58:22.705Z,49.80
2018-12-16T11:00:56.154Z,57.33
2018-12-16T11:03:23.723Z,68.52
2018-12-16T11:05:51.213Z,57.73
2018-12-16T11:08:19.767Z,43.38
2018-12-16T11:10:47.222Z,47.38
2018-12-16T11:13:14.895Z,45.63
2018-12-16T11:15:42.552Z,48.08
2018-12-16T11:18:10.030Z,48.40
2018-12-16T11:20:37.512Z,44.27
2018-12-16T11:23:06.268Z,41.95
2018-12-16T11:25:35.741Z,48.98
2018-12-16T11:28:03.257Z,40.45
2018-12-16T11:30:30.988Z,41.00
2018-12-16T11:32:58.574Z,42.20
2018-12-16T11:35:26.382Z,44.95
2018-12-16T11:37:53.816Z,33.25
2018-12-16T11:40:21.297Z,34.63
2018-12-16T11:42:48.935Z,36.30
2018-12-16T11:45:16.373Z,35.40
2018-12-16T11:47:44.214Z,35.90
2018-12-16T11:50:11.689Z,35.80
2018-12-16T11:52:39.378Z,31.57
2018-12-16T11:55:12.773Z,34.10
2018-12-16T11:57:36.813Z,28.35
2018-12-16T12:00:05.156Z,27.35
2018-12-16T12:02:33.748Z,31.27
2018-12-16T12:05:03.722Z,24.55
2018-12-16T12:07:32.560Z,21.35
2018-12-16T12:09:59.938Z,14.33
2018-12-16T12:12:27.455Z,18.37
2018-12-16T12:14:54.980Z,13.60
2018-12-16T12:17:22.417Z,19.52
2018-12-16T12:19:49.831Z,14.63
2018-12-16T12:22:17.275Z,14.03
2018-12-16T12:24:44.735Z,15.10
2018-12-16T12:27:12.289Z,14.18
2018-12-16T12:29:39.803Z,12.65
2018-12-16T12:32:07.302Z,11.68
2018-12-16T12:34:35.095Z,13.18
2018-12-16T12:37:02.824Z,12.78
2018-12-16T12:39:30.326Z,10.80
2018-12-16T12:41:57.948Z,15.63
2018-12-16T12:44:25.494Z,10.80
2018-12-16T12:46:52.972Z,14.37
2018-12-16T12:49:20.529Z,11.05
2018-12-16T12:51:48.143Z,10.50
2018-12-16T12:54:15.598Z,9.08
2018-12-16T12:56:43.196Z,11.83
2018-12-16T12:59:11.601Z,14.63
2018-12-16T13:01:39.011Z,9.15
2018-12-16T13:04:06.496Z,13.93
2018-12-16T13:06:34.103Z,8.30
2018-12-16T13:09:04.301Z,8.57
2018-12-16T13:11:33.733Z,8.70
2018-12-16T13:14:01.327Z,9.20
2018-12-16T13:16:28.802Z,7.83
2018-12-16T13:18:56.284Z,8.33
2018-12-16T13:21:23.794Z,9.60
2018-12-16T13:23:51.303Z,10.87
2018-12-16T13:26:18.882Z,6.40
2018-12-16T13:28:46.311Z,6.10
2018-12-16T13:31:13.865Z,9.80
2018-12-16T13:33:41.351Z,7.23
2018-12-16T13:36:10.627Z,6.43
2018-12-16T13:38:38.145Z,6.20
2018-12-16T13:41:05.651Z,7.63
2018-12-16T13:43:33.171Z,5.90
2018-12-16T13:46:01.783Z,9.60
2018-12-16T13:48:29.428Z,5.87
2018-12-16T13:50:56.912Z,9.17
2018-12-16T13:53:24.466Z,12.70
2018-12-16T13:55:52.009Z,5.47
2018-12-16T13:58:19.578Z,9.00
2018-12-16T14:00:48.295Z,5.73
2018-12-16T14:03:15.861Z,6.57
2018-12-16T14:05:46.722Z,6.70
2018-12-16T14:08:13.152Z,8.70
2018-12-16T14:10:40.606Z,7.57
2018-12-16T14:13:08.135Z,5.50
2018-12-16T14:15:35.624Z,6.00
2018-12-16T14:18:03.252Z,5.60
2018-12-16T14:20:30.885Z,6.07
2018-12-16T14:22:58.483Z,14.03
2018-12-16T14:25:26.117Z,7.13
2018-12-16T14:27:54.874Z,9.63
2018-12-16T14:30:22.889Z,8.87
2018-12-16T14:32:51.765Z,8.27
2018-12-16T14:35:19.592Z,7.23
2018-12-16T14:37:47.191Z,8.33
2018-12-16T14:40:14.771Z,9.67
2018-12-16T14:42:42.446Z,8.77
2018-12-16T14:45:10.129Z,11.00
2018-12-16T14:47:38.918Z,11.10
2018-12-16T14:50:08.952Z,8.63
2018-12-16T14:52:37.503Z,7.80
2018-12-16T14:55:06.464Z,8.27
2018-12-16T14:57:34.033Z,9.70
2018-12-16T15:00:01.622Z,10.10
2018-12-16T15:02:31.283Z,7.50
2018-12-16T15:04:58.793Z,6.43
2018-12-16T15:07:26.295Z,6.97
2018-12-16T15:09:53.711Z,5.63
2018-12-16T15:12:21.262Z,7.00
2018-12-16T15:14:49.167Z,11.43
2018-12-16T15:17:17.921Z,13.77
2018-12-16T15:19:45.432Z,12.00
2018-12-16T15:22:12.852Z,17.10
2018-12-16T15:24:40.284Z,9.90
2018-12-16T15:27:07.793Z,12.80
2018-12-16T15:29:35.249Z,18.80
2018-12-16T15:32:02.724Z,17.07
2018-12-16T15:34:30.353Z,13.20
2018-12-16T15:36:58.135Z,13.57
2018-12-16T15:39:25.805Z,11.83
2018-12-16T15:41:53.340Z,15.70
2018-12-16T15:44:20.928Z,15.30
2018-12-16T15:46:48.400Z,11.37
2018-12-16T15:49:15.904Z,11.50
2018-12-16T15:51:43.367Z,9.37
2018-12-16T15:54:10.970Z,18.20
2018-12-16T15:56:38.513Z,18.10
2018-12-16T15:59:06.327Z,32.70
2018-12-16T16:01:33.923Z,20.67
2018-12-16T16:04:01.434Z,15.00
2018-12-16T16:06:28.990Z,9.93
2018-12-16T16:08:56.498Z,11.20
2018-12-16T16:11:24.438Z,12.43
2018-12-16T16:13:52.010Z,20.00
2018-12-16T16:16:20.622Z,29.65
2018-12-16T16:18:48.302Z,35.65
2018-12-16T16:21:15.796Z,30.48
2018-12-16T16:23:43.255Z,38.43
2018-12-16T16:26:16.212Z,43.60
2018-12-16T16:28:40.434Z,54.30
2018-12-16T16:31:07.959Z,58.00
2018-12-16T16:33:35.596Z,65.78
2018-12-16T16:36:03.561Z,56.18
2018-12-16T16:38:31.026Z,48.48
2018-12-16T16:40:59.132Z,51.50
2018-12-16T16:43:27.223Z,43.02
2018-12-16T16:45:54.721Z,30.88
2018-12-16T16:48:22.221Z,23.15
2018-12-16T16:50:49.753Z,16.70
2018-12-16T16:53:17.206Z,17.92
2018-12-16T16:55:44.686Z,19.67
2018-12-16T16:58:12.099Z,21.02
2018-12-16T17:00:39.577Z,21.30
2018-12-16T17:03:07.046Z,30.50
2018-12-16T17:05:34.582Z,43.95
2018-12-16T17:08:02.180Z,49.40
2018-12-16T17:10:29.678Z,45.98
2018-12-16T17:12:57.130Z,32.98
2018-12-16T17:15:24.611Z,23.40
2018-12-16T17:17:52.094Z,17.05
2018-12-16T17:20:21.272Z,18.40
2018-12-16T17:22:48.898Z,28.15
2018-12-16T17:25:16.400Z,38.35
2018-12-16T17:27:44.070Z,46.33
2018-12-16T17:30:11.961Z,50.23
2018-12-16T17:32:39.700Z,42.83
2018-12-16T17:35:07.403Z,37.00
2018-12-16T17:37:41.892Z,38.73
2018-12-16T17:40:09.465Z,32.25
2018-12-16T17:42:37.174Z,27.52
2018-12-16T17:45:05.710Z,23.18
2018-12-16T17:47:33.310Z,13.38
2018-12-16T17:50:00.798Z,15.80
2018-12-16T17:52:28.315Z,25.45
2018-12-16T17:54:55.825Z,33.00
2018-12-16T17:57:23.312Z,29.92
2018-12-16T17:59:50.732Z,34.53
2018-12-16T18:02:18.647Z,26.50
2018-12-16T18:04:46.371Z,30.00
2018-12-16T18:07:14.200Z,36.85
2018-12-16T18:09:41.695Z,36.80
2018-12-16T18:12:09.241Z,25.92
2018-12-16T18:14:36.951Z,19.92
2018-12-16T18:17:05.879Z,20.62
2018-12-16T18:19:33.309Z,12.98
2018-12-16T18:22:01.484Z,15.78
2018-12-16T18:24:29.045Z,16.40
2018-12-16T18:26:56.634Z,16.23
2018-12-16T18:29:24.133Z,21.25
2018-12-16T18:31:51.538Z,36.08
2018-12-16T18:34:19.138Z,42.08
2018-12-16T18:36:46.709Z,49.70
2018-12-16T18:39:14.349Z,54.27
2018-12-16T18:41:42.273Z,50.50
2018-12-16T18:44:09.910Z,54.83
2018-12-16T18:46:37.461Z,48.78
2018-12-16T18:49:05.138Z,52.30
2018-12-16T18:51:33.011Z,49.53
2018-12-16T18:54:00.534Z,39.13
2018-12-16T18:56:28.162Z,36.90
2018-12-16T18:58:55.666Z,34.88
2018-12-16T19:01:23.111Z,25.88
2018-12-16T19:03:50.611Z,33.48
2018-12-16T19:06:19.210Z,29.42
2018-12-16T19:08:46.756Z,35.20
2018-12-16T19:11:14.208Z,35.48
2018-12-16T19:13:41.749Z,34.20
2018-12-16T19:16:09.404Z,24.30
2018-12-16T19:18:36.980Z,27.85
2018-12-16T19:21:04.644Z,25.60
2018-12-16T19:23:32.316Z,22.62
2018-12-16T19:25:59.856Z,25.25
2018-12-16T19:28:27.361Z,26.73
2018-12-16T19:30:54.990Z,30.65
2018-12-16T19:33:22.903Z,24.90
2018-12-16T19:35:50.520Z,20.40
2018-12-16T19:38:18.459Z,17.27
2018-12-16T19:40:45.927Z,23.30
2018-12-16T19:43:13.512Z,18.32
2018-12-16T19:45:41.101Z,20.50
2018-12-16T19:48:08.750Z,23.80
2018-12-16T19:50:36.534Z,29.40
2018-12-16T19:53:03.996Z,23.65
2018-12-16T19:55:31.621Z,27.50
2018-12-16T19:57:59.276Z,26.48
2018-12-16T20:00:26.810Z,26.73
2018-12-16T20:02:54.415Z,21.60
2018-12-16T20:05:23.576Z,18.62
2018-12-16T20:07:51.326Z,21.62
2018-12-16T20:10:18.960Z,20.10
2018-12-16T20:12:46.456Z,19.40
2018-12-16T20:15:14.246Z,17.90
2018-12-16T20:17:41.864Z,15.53
2018-12-16T20:20:09.596Z,23.65
2018-12-16T20:22:37.326Z,16.30
2018-12-16T20:25:05.308Z,14.23
2018-12-16T20:27:32.871Z,14.70
2018-12-16T20:30:00.419Z,14.98
2018-12-16T20:32:27.905Z,14.93
2018-12-16T20:34:55.396Z,14.43
2018-12-16T20:37:22.887Z,13.75
2018-12-16T20:39:50.390Z,19.17
2018-12-16T20:42:17.935Z,22.35
2018-12-16T20:44:45.401Z,31.50
2018-12-16T20:47:12.965Z,34.50
2018-12-16T20:49:40.478Z,36.88
2018-12-16T20:52:07.925Z,28.90
2018-12-16T20:54:35.368Z,31.90
2018-12-16T20:57:02.981Z,26.35
2018-12-16T20:59:30.601Z,32.70
2018-12-16T21:01:58.405Z,25.70
2018-12-16T21:04:25.921Z,23.87
2018-12-16T21:06:53.490Z,28.77
2018-12-16T21:09:20.942Z,27.25
2018-12-16T21:11:54.108Z,25.08
2018-12-16T21:14:27.246Z,24.30
2018-12-16T21:17:00.331Z,26.97
2018-12-16T21:19:28.277Z,28.70
2018-12-16T21:21:55.922Z,22.37
2018-12-16T21:24:23.869Z,21.93
2018-12-16T21:26:51.714Z,19.48
2018-12-16T21:29:19.192Z,25.40
2018-12-16T21:31:46.827Z,16.67
2018-12-16T21:34:14.387Z,15.95
2018-12-16T21:36:41.890Z,17.27
2018-12-16T21:39:09.431Z,11.35
2018-12-16T21:41:39.085Z,16.95
2018-12-16T21:44:06.613Z,15.10
2018-12-16T21:46:34.099Z,18.20
2018-12-16T21:49:01.784Z,13.38
2018-12-16T21:51:29.830Z,15.90
2018-12-16T21:53:57.543Z,15.13
2018-12-16T21:56:25.067Z,11.20
2018-12-16T21:58:52.534Z,15.68
2018-12-16T22:01:20.099Z,12.73
2018-12-16T22:03:47.726Z,19.57
2018-12-16T22:06:15.488Z,15.83
2018-12-16T22:08:43.080Z,20.95
2018-12-16T22:11:10.721Z,23.55
2018-12-16T22:13:38.353Z,26.50
2018-12-16T22:16:05.928Z,24.05
2018-12-16T22:18:33.407Z,25.08
2018-12-16T22:21:00.963Z,24.07
2018-12-16T22:23:28.628Z,31.97
2018-12-16T22:25:56.119Z,18.98
2018-12-16T22:28:23.801Z,15.68
2018-12-16T22:30:51.568Z,14.78
2018-12-16T22:33:19.085Z,10.90
2018-12-16T22:35:46.680Z,11.57
2018-12-16T22:38:14.266Z,11.55
2018-12-16T22:40:42.034Z,10.00
2018-12-16T22:43:09.650Z,10.38
2018-12-16T22:45:37.237Z,16.17
2018-12-16T22:48:04.803Z,17.42
2018-12-16T22:50:32.490Z,13.13
2018-12-16T22:53:00.214Z,16.35
2018-12-16T22:55:27.652Z,22.80
2018-12-16T22:57:55.281Z,21.17
2018-12-16T23:00:23.014Z,24.65
2018-12-16T23:02:52.599Z,24.57
2018-12-16T23:05:20.107Z,21.35
2018-12-16T23:07:47.843Z,22.17
2018-12-16T23:10:15.362Z,27.00
2018-12-16T23:12:43.298Z,25.23
2018-12-16T23:15:11.067Z,23.85
2018-12-16T23:17:38.595Z,20.00
2018-12-16T23:20:11.991Z,26.23
2018-12-16T23:22:39.535Z,18.55
2018-12-16T23:25:07.486Z,20.48
2018-12-16T23:27:35.105Z,17.32
2018-12-16T23:30:03.184Z,17.57
2018-12-16T23:32:30.840Z,24.60
2018-12-16T23:34:58.414Z,26.68
2018-12-16T23:37:25.956Z,28.87
2018-12-16T23:39:53.495Z,24.25
2018-12-16T23:42:20.949Z,17.40
2018-12-16T23:44:48.498Z,15.65
2018-12-16T23:47:15.975Z,18.70
2018-12-16T23:49:43.599Z,22.25
2018-12-16T23:52:11.193Z,18.75
2018-12-16T23:54:38.820Z,29.35
2018-12-16T23:57:06.526Z,57.10
2018-12-16T23:59:34.133Z,36.68
